Latest Weather Observations for Gladstone Airport

IDQ60801

Issued at 9:35 pm EST Tuesday 21 October 2014 (issued every 30 minutes, with the page automatically refreshed every 10 minutes)

About weather observations | Map of weather stations | Latest weather observations for QLD | Other Formats
Station Details ID: 039326 Name: GLADSTONE AIRPORT Lat: -23.87 Lon: 151.22 Height: 16.6 m
Data from the previous 72 hours. | See also: Recent months at Gladstone Airport
Date/Time
EST
Temp
°C
App
Temp
°C
Dew
Point
Rel
Hum
%
Delta-T
°C
Wind Press
QNH
hPa
Press
MSL
hPa
Rain
since 9 am
mm
Dir
 
Spd
km/h
Gust
km/h
Spd
kts
Gust
kts
21/09:30pm 22.1 21.1 14.7 63 4.3 SE 13 19 7 10 1024.7 1024.6 0.0
21/09:00pm 22.1 21.1 14.7 63 4.3 SE 13 20 7 11 1024.8 1024.7 0.0
21/08:30pm 22.1 21.3 15.0 64 4.2 ESE 13 22 7 12 1024.7 1024.6 0.0
21/08:00pm 22.3 20.3 14.9 63 4.4 ESE 19 30 10 16 1024.4 1024.3 0.0
21/07:30pm 22.4 20.4 15.0 63 4.4 ESE 19 28 10 15 1024.2 1024.1 0.0
21/07:00pm 22.4 19.3 14.5 61 4.6 ESE 24 32 13 17 1023.9 1023.8 0.0
21/06:30pm 22.7 19.1 14.3 59 4.9 ESE 26 37 14 20 1023.5 1023.4 0.0
21/06:00pm 22.8 17.7 13.8 57 5.2 E 33 46 18 25 1022.8 1022.8 0.0
21/05:30pm 23.2 18.3 13.7 55 5.5 E 32 46 17 25 1022.5 1022.5 0.0
21/05:15pm 23.6 18.5 13.8 54 5.7 E 33 52 18 28 1022.3 1022.3 0.0
21/05:00pm 23.6 17.7 13.5 53 5.9 E 37 46 20 25 1022.0 1022.0 0.0
21/04:30pm 24.4 18.9 13.6 51 6.3 E 35 56 19 30 1021.9 1021.9 0.0
21/04:24pm 24.5 19.2 13.1 49 6.6 E 33 56 18 30 1021.8 1021.8 0.0
21/04:00pm 24.6 18.7 13.5 50 6.5 E 37 50 20 27 1021.7 1021.7 0.0
21/03:30pm 24.7 18.2 13.0 48 6.8 E 39 50 21 27 1021.8 1021.8 0.0
21/03:20pm 24.9 19.0 12.5 46 7.1 E 35 54 19 29 1021.7 1021.7 0.0
21/03:00pm 25.2 19.3 12.4 45 7.3 E 35 46 19 25 1021.7 1021.7 0.0
21/02:30pm 25.1 19.2 12.3 45 7.3 E 35 48 19 26 1021.9 1021.9 0.0
21/02:00pm 25.4 20.0 12.3 44 7.5 E 32 44 17 24 1022.3 1022.3 0.0
21/01:30pm 25.3 20.3 12.2 44 7.5 E 30 39 16 21 1022.5 1022.5 0.0
21/01:00pm 25.9 21.0 12.7 44 7.6 E 30 39 16 21 1022.9 1022.9 0.0
21/12:30pm 26.0 21.2 12.8 44 7.7 ESE 30 41 16 22 1023.5 1023.4 0.0
21/12:00pm 25.6 20.1 11.7 42 7.9 E 32 39 17 21 1023.8 1023.7 0.0
21/11:30am 25.4 20.6 11.6 42 7.8 E 28 37 15 20 1024.4 1024.3 0.0
21/11:00am 25.2 20.3 12.4 45 7.3 E 30 41 16 22 1024.7 1024.6 0.0
21/10:30am 25.7 21.1 12.2 43 7.8 ESE 28 39 15 21 1024.9 1024.8 0.0
21/10:00am 24.8 19.9 12.4 46 7.1 E 30 39 16 21 1025.1 1025.0 0.0
21/09:30am 24.4 20.0 11.7 45 7.2 ESE 26 41 14 22 1025.4 1025.3 0.0
21/09:00am 24.3 19.0 12.6 48 6.7 E 32 39 17 21 1025.2 1025.1 0.0
21/08:30am 22.9 19.3 13.1 54 5.6 SSE 24 39 13 21 1025.1 1025.0 0.0
21/08:00am 22.6 19.5 13.4 56 5.3 SSE 22 37 12 20 1025.0 1024.9 0.0
21/07:30am 22.0 19.3 13.4 58 4.9 SE 20 35 11 19 1024.7 1024.6 0.0
21/07:00am 21.1 19.0 13.5 62 4.4 SSE 17 26 9 14 1024.3 1024.2 0.0
21/06:30am 20.4 19.1 13.6 65 3.9 SSE 13 26 7 14 1024.1 1024.0 0.0
21/06:00am 19.0 18.4 13.6 71 3.1 SSE 9 15 5 8 1023.7 1023.6 0.0
21/05:30am 18.8 17.6 13.9 73 2.8 SSE 13 19 7 10 1023.5 1023.4 0.0
21/05:00am 18.9 17.6 13.7 72 3.0 SSE 13 20 7 11 1023.1 1023.1 0.0
21/04:30am 19.2 17.6 13.8 71 3.1 SSE 15 24 8 13 1022.8 1022.8 0.0
21/04:00am 18.9 18.2 13.3 70 3.2 S 9 11 5 6 1022.7 1022.7 0.0
21/03:30am 18.0 17.3 13.1 73 2.8 S 9 11 5 6 1022.5 1022.5 0.0
21/03:00am 18.4 17.6 12.8 70 3.1 S 9 13 5 7 1022.5 1022.5 0.0
21/02:30am 19.3 18.6 13.2 68 3.5 S 9 11 5 6 1022.5 1022.5 0.0
21/02:00am 19.3 18.7 13.5 69 3.3 SSE 9 15 5 8 1022.6 1022.6 0.0
21/01:30am 19.5 19.3 13.7 69 3.3 SSE 7 13 4 7 1022.8 1022.8 0.0
21/01:00am 19.6 18.7 13.8 69 3.3 SSE 11 17 6 9 1023.0 1023.0 0.0
21/12:30am 19.6 18.9 13.3 67 3.6 SSE 9 13 5 7 1023.5 1023.4 0.0
21/12:00am 19.2 18.9 13.2 68 3.4 SSE 7 11 4 6 1023.8 1023.7 0.0
 
Date/Time
EST
Temp
°C
App
Temp
°C
Dew
Point
Rel
Hum
%
Delta-T
°C
Wind Press
QNH
hPa
Press
MSL
hPa
Rain
since 9 am
mm
Dir
 
Spd
km/h
Gust
km/h
Spd
kts
Gust
kts
20/11:30pm 19.3 19.0 13.2 68 3.5 SSE 7 11 4 6 1024.4 1024.3 0.0
20/11:00pm 19.6 19.2 13.1 66 3.7 SSE 7 11 4 6 1024.5 1024.4 0.0
20/10:30pm 20.0 19.7 13.2 65 3.9 SSE 7 11 4 6 1024.6 1024.5 0.0
20/10:00pm 21.1 20.1 13.5 62 4.4 SE 11 15 6 8 1024.6 1024.5 0.0
20/09:30pm 22.0 19.5 13.6 59 4.9 E 19 28 10 15 1024.5 1024.4 0.0
20/09:00pm 21.8 19.3 13.4 59 4.8 E 19 22 10 12 1024.3 1024.2 0.0
20/08:30pm 21.9 18.7 13.0 57 5.1 E 22 30 12 16 1023.9 1023.8 0.0
20/08:00pm 21.8 18.6 13.2 58 4.9 E 22 30 12 16 1023.5 1023.4 0.0
20/07:30pm 21.6 19.0 13.2 59 4.8 ESE 19 28 10 15 1022.8 1022.8 0.0
20/07:00pm 21.8 17.8 12.9 57 5.1 E 26 35 14 19 1022.4 1022.4 0.0
20/06:30pm 21.8 18.2 12.9 57 5.1 E 24 32 13 17 1022.0 1022.0 0.0
20/06:00pm 22.0 18.3 12.8 56 5.2 E 24 33 13 18 1021.7 1021.7 0.0
20/05:30pm 22.2 17.1 13.0 56 5.3 E 32 43 17 23 1021.2 1021.2 0.0
20/05:00pm 22.5 18.5 13.0 55 5.4 E 26 37 14 20 1020.9 1020.9 0.0
20/04:30pm 23.1 19.4 12.7 52 6.0 ENE 24 33 13 18 1020.7 1020.7 0.0
20/04:00pm 23.1 18.5 12.4 51 6.1 ENE 28 33 15 18 1020.6 1020.6 0.0
20/03:30pm 23.9 19.0 12.5 49 6.5 ENE 30 39 16 21 1020.6 1020.6 0.0
20/03:00pm 24.3 19.6 11.9 45 7.0 ENE 28 35 15 19 1020.6 1020.6 0.0
20/02:30pm 24.5 19.6 10.0 40 8.0 ENE 26 35 14 19 1020.7 1020.7 0.0
20/02:00pm 24.5 21.1 12.5 47 6.9 ENE 22 30 12 16 1021.0 1021.0 0.0
20/01:30pm 25.0 21.9 12.2 44 7.3 ENE 20 28 11 15 1021.4 1021.4 0.0
20/01:00pm 24.6 21.2 12.5 46 6.9 ENE 22 32 12 17 1021.8 1021.8 0.0
20/12:30pm 24.5 21.0 12.1 46 7.1 ENE 22 32 12 17 1022.2 1022.2 0.0
20/12:00pm 23.8 19.7 11.5 46 6.9 NE 24 32 13 17 1022.6 1022.6 0.0
20/11:30am 24.2 20.3 9.4 39 8.0 ENE 20 26 11 14 1023.3 1023.3 0.0
20/11:00am 24.8 21.0 9.9 39 8.2 E 20 30 11 16 1023.8 1023.7 0.0
20/10:30am 23.9 20.2 9.5 40 7.8 E 19 35 10 19 1024.1 1024.0 0.0
20/10:00am 23.1 20.0 10.2 44 7.0 ESE 17 28 9 15 1024.6 1024.5 0.0
20/09:30am 23.4 19.8 10.5 44 7.1 E 20 28 11 15 1024.7 1024.6 0.0
20/09:00am 22.5 19.2 9.6 44 6.9 SE 17 24 9 13 1025.0 1024.9 0.0
20/08:30am 22.3 19.3 10.5 47 6.5 SE 17 28 9 15 1025.2 1025.1 0.0
20/08:00am 21.4 18.0 10.6 50 5.9 SSE 19 32 10 17 1025.1 1025.0 0.0
20/07:30am 21.0 17.6 11.1 53 5.5 SSE 20 28 11 15 1024.9 1024.8 0.0
20/07:00am 20.5 18.0 11.2 55 5.1 SSE 15 20 8 11 1024.6 1024.5 0.0
20/06:30am 19.5 18.3 11.5 60 4.4 S 9 19 5 10 1024.5 1024.4 0.0
20/06:00am 16.8 15.6 11.7 72 2.8 SSW 9 11 5 6 1024.3 1024.2 0.0
20/05:30am 15.5 14.2 11.1 75 2.3 SSW 9 11 5 6 1023.9 1023.8 0.0
20/05:00am 16.1 14.8 11.1 72 2.7 S 9 11 5 6 1023.3 1023.3 0.0
20/04:30am 16.6 15.3 11.1 70 3.0 S 9 15 5 8 1023.2 1023.2 0.0
20/04:00am 16.4 15.1 11.3 72 2.7 SSW 9 11 5 6 1023.0 1023.0 0.0
20/03:30am 16.5 15.1 11.0 70 2.9 SSW 9 13 5 7 1022.8 1022.8 0.0
20/03:00am 17.5 16.2 11.3 67 3.3 SSE 9 13 5 7 1022.8 1022.8 0.0
20/02:30am 17.0 16.1 11.5 70 3.0 S 7 11 4 6 1022.9 1022.9 0.0
20/02:00am 17.4 16.6 11.7 69 3.1 S 7 9 4 5 1023.1 1023.1 0.0
20/01:30am 17.7 16.5 11.7 68 3.3 S 9 13 5 7 1023.3 1023.3 0.0
20/01:00am 17.7 16.9 11.7 68 3.3 SSW 7 9 4 5 1023.6 1023.5 0.0
20/12:30am 18.5 17.4 12.0 66 3.6 S 9 11 5 6 1023.9 1023.8 0.0
20/12:00am 19.0 17.9 12.0 64 3.9 S 9 11 5 6 1024.2 1024.1 0.0
 
Date/Time
EST
Temp
°C
App
Temp
°C
Dew
Point
Rel
Hum
%
Delta-T
°C
Wind Press
QNH
hPa
Press
MSL
hPa
Rain
since 9 am
mm
Dir
 
Spd
km/h
Gust
km/h
Spd
kts
Gust
kts
19/11:30pm 19.3 18.7 12.3 64 3.9 SSE 7 11 4 6 1024.6 1024.5 0.0
19/11:00pm 19.9 18.9 12.4 62 4.2 SSE 9 13 5 7 1024.8 1024.7 0.0
19/10:30pm 20.2 19.2 12.4 61 4.4 SSE 9 13 5 7 1025.0 1024.9 0.0
19/10:00pm 20.9 19.6 12.6 59 4.7 SSE 11 17 6 9 1025.1 1025.0 0.0
19/09:30pm 21.4 18.6 13.1 59 4.7 ESE 20 28 11 15 1025.0 1024.9 0.0
19/09:00pm 21.6 17.8 12.5 56 5.1 ESE 24 33 13 18 1024.9 1024.8 0.0
19/08:30pm 21.9 17.7 12.5 55 5.3 ESE 26 33 14 18 1024.8 1024.7 0.0
19/08:00pm 22.0 18.7 14.1 61 4.6 E 24 35 13 19 1024.4 1024.3 0.0
19/07:30pm 21.9 17.5 13.0 57 5.1 E 28 37 15 20 1024.2 1024.1 0.0
19/07:00pm 22.1 16.8 12.6 55 5.4 E 32 39 17 21 1023.8 1023.7 0.0
19/06:30pm 22.1 16.9 13.5 58 5.0 E 33 44 18 24 1023.2 1023.2 0.0
19/06:00pm 22.3 16.9 13.9 59 4.9 E 35 46 19 25 1022.9 1022.9 0.0
19/05:30pm 22.9 17.1 13.9 57 5.3 E 37 50 20 27 1022.5 1022.5 0.0
19/05:00pm 23.3 17.2 12.9 52 6.0 E 37 50 20 27 1022.2 1022.2 0.0
19/04:30pm 24.1 18.4 13.0 50 6.4 E 35 50 19 27 1022.0 1022.0 0.0
19/04:00pm 24.1 17.6 11.8 46 6.9 E 37 48 20 26 1021.8 1021.8 0.0
19/03:30pm 24.6 18.2 11.9 45 7.2 ESE 37 52 20 28 1021.7 1021.7 0.0
19/03:00pm 25.2 19.0 12.8 46 7.2 E 37 50 20 27 1021.6 1021.6 0.0
19/02:30pm 24.7 18.0 12.3 46 7.1 E 39 50 21 27 1021.8 1021.8 0.0
19/02:00pm 25.4 19.6 12.6 45 7.4 E 35 48 19 26 1022.0 1022.0 0.0
19/01:30pm 25.3 19.6 12.9 46 7.2 E 35 44 19 24 1022.3 1022.3 0.0
19/01:00pm 25.5 20.4 13.7 48 6.9 E 33 43 18 23 1022.6 1022.6 0.0
19/12:30pm 25.4 20.4 13.9 49 6.8 E 33 46 18 25 1022.9 1022.9 0.0
19/12:04pm 25.9 20.8 13.1 45 7.5 E 32 50 17 27 1023.3 1023.3 0.0
19/12:00pm 25.1 20.0 13.0 47 7.0 E 32 46 17 25 1023.5 1023.4 0.0
19/11:30am 25.1 19.8 13.0 47 7.0 E 33 48 18 26 1023.9 1023.8 0.0
19/11:00am 25.1 19.7 12.7 46 7.1 E 33 44 18 24 1024.3 1024.2 0.0
19/10:30am 24.9 19.6 12.5 46 7.1 ESE 32 46 17 25 1024.8 1024.7 0.0
19/10:23am 24.7 20.2 12.6 47 7.0 ESE 28 46 15 25 1025.0 1024.9 0.0
19/10:00am 24.6 19.2 12.2 46 7.1 ESE 32 43 17 23 1025.2 1025.1 0.0
19/09:49am 24.9 20.1 14.1 51 6.4 ESE 32 50 17 27 1025.3 1025.2 0.0
19/09:30am 24.4 19.2 13.3 50 6.5 ESE 33 44 18 24 1025.4 1025.3 0.0
19/09:00am 24.1 19.1 13.3 51 6.2 ESE 32 50 17 27 1025.5 1025.4 0.0
19/08:58am 24.1 19.4 13.3 51 6.3 ESE 30 50 16 27 1025.4 1025.3 0.0
19/08:30am 23.1 19.8 14.1 57 5.3 SE 24 37 13 20 1025.6 1025.5 0.0
19/08:00am 22.7 19.7 13.7 56 5.2 SE 22 35 12 19 1025.6 1025.5 0.0
19/07:30am 21.9 18.9 13.8 60 4.7 SE 22 33 12 18 1025.3 1025.2 0.0
19/07:00am 21.1 19.2 14.3 65 3.9 SSE 17 24 9 13 1025.1 1025.0 0.0
19/06:30am 19.8 18.2 14.0 69 3.3 SSE 15 22 8 12 1024.8 1024.7 0.0
19/06:00am 18.9 16.5 13.7 72 3.0 SSE 19 28 10 15 1024.6 1024.5 0.0
19/05:30am 18.8 18.0 13.9 73 2.8 SSE 11 15 6 8 1024.0 1023.9 0.0
19/05:00am 18.3 17.8 13.8 75 2.6 SSE 9 13 5 7 1023.9 1023.8 0.0
19/04:30am 18.1 18.0 13.8 76 2.5 SSE 7 11 4 6 1023.6 1023.5 0.0
19/04:00am 17.6 17.4 13.5 77 2.3 S 7 11 4 6 1023.5 1023.4 0.0
19/03:30am 17.4 17.1 13.3 77 2.3 SSW 7 9 4 5 1023.5 1023.4 0.0
19/03:00am 17.7 17.9 13.2 75 2.5 S 4 7 2 4 1023.1 1023.1 0.0
19/02:30am 18.1 17.4 13.2 73 2.8 SSW 9 11 5 6 1023.5 1023.4 0.0
19/02:00am 18.4 17.7 13.3 72 2.9 S 9 11 5 6 1023.6 1023.5 0.0
19/01:30am 19.0 18.7 13.2 69 3.3 S 7 13 4 7 1023.5 1023.4 0.0
19/01:00am 19.8 18.9 13.7 68 3.5 S 11 17 6 9 1023.7 1023.6 0.0
19/12:30am 19.7 18.8 13.6 68 3.5 SSE 11 15 6 8 1024.0 1023.9 0.0
19/12:00am 19.8 18.5 13.7 68 3.5 SSE 13 19 7 10 1024.2 1024.1 0.0
 
Date/Time
EST
Temp
°C
App
Temp
°C
Dew
Point
Rel
Hum
%
Delta-T
°C
Wind Press
QNH
hPa
Press
MSL
hPa
Rain
since 9 am
mm
Dir
 
Spd
km/h
Gust
km/h
Spd
kts
Gust
kts
18/11:30pm 20.2 19.3 13.6 66 3.8 SSE 11 17 6 9 1024.4 1024.3 0.0
18/11:00pm 20.7 19.4 13.6 64 4.1 SE 13 20 7 11 1024.5 1024.4 0.0
18/10:30pm 21.0 19.3 13.7 63 4.2 SE 15 24 8 13 1024.6 1024.5 0.0
18/10:00pm 21.3 18.9 13.7 62 4.4 SE 19 32 10 17 1024.6 1024.5 0.0

Other Formats:

Comma delimited format used in spreadsheet applications
http://www.bom.gov.au/fwo/IDQ60801/IDQ60801.94381.axf

JavaScript Object Notation format (JSON) in row-major order
http://www.bom.gov.au/fwo/IDQ60801/IDQ60801.94381.json